Time;durP1;ratioP1;P1;durP2;ratioP2;P2;SDS_P1;SDS_P2;PMS_P1;PMS_P2;Temp;Humidity;BMP_temperature;BMP_pressure;BME280_temperature;BME280_humidity;BME280_pressure;Samples;Min_cycle;Max_cycle;Signal;HPM_P1;HPM_P2
2022/08/18 00:02:22;;;;;;;919.07;856.33;;;16.00;99.90;;;;;;6126056;23;20421;-86
2022/08/18 00:04:49;;;;;;;728.27;686.83;;;16.00;99.90;;;;;;6126501;23;20559;-85
2022/08/18 00:07:23;;;;;;;705.60;666.60;;;15.90;99.90;;;;;;6126246;23;20462;-85
2022/08/18 00:09:50;;;;;;;811.40;763.33;;;15.90;99.90;;;;;;6126732;23;20399;-85
2022/08/18 00:12:22;;;;;;;869.93;817.13;;;15.80;99.90;;;;;;6126228;23;20469;-85
2022/08/18 00:14:49;;;;;;;906.63;849.30;;;15.80;99.90;;;;;;6125570;23;20442;-84
2022/08/18 00:17:17;;;;;;;918.27;859.83;;;15.80;99.90;;;;;;6126105;23;21014;-85
2022/08/18 00:19:44;;;;;;;935.47;872.20;;;15.90;99.90;;;;;;6125529;23;20754;-85
2022/08/18 00:22:14;;;;;;;945.63;878.73;;;16.10;99.90;;;;;;6125791;23;20415;-85
2022/08/18 00:24:41;;;;;;;925.80;861.43;;;16.10;99.90;;;;;;6125502;23;20436;-85
2022/08/18 00:27:09;;;;;;;937.67;871.50;;;16.20;99.90;;;;;;6126088;23;20446;-85
2022/08/18 00:29:37;;;;;;;933.03;863.70;;;16.10;99.90;;;;;;6126502;23;20902;-85
2022/08/18 00:32:13;;;;;;;933.90;865.27;;;16.20;99.90;;;;;;6126563;23;20416;-85
2022/08/18 00:34:39;;;;;;;938.30;875.30;;;16.20;99.90;;;;;;6127982;23;20438;-86
2022/08/18 00:37:06;;;;;;;943.30;878.03;;;16.00;99.90;;;;;;6128674;23;20415;-85
2022/08/18 00:39:33;;;;;;;937.33;873.53;;;16.00;99.90;;;;;;6127793;23;20420;-84
2022/08/18 00:42:11;;;;;;;942.33;877.10;;;15.80;99.90;;;;;;6128213;23;20418;-85
2022/08/18 00:44:39;;;;;;;948.80;879.73;;;15.80;99.90;;;;;;6128601;23;20475;-85
2022/08/18 00:47:06;;;;;;;958.93;886.63;;;15.80;99.90;;;;;;6127821;23;20415;-86
2022/08/18 00:49:32;;;;;;;952.00;876.70;;;15.80;99.90;;;;;;6127057;23;20423;-84
2022/08/18 00:52:01;;;;;;;949.53;872.13;;;15.80;99.90;;;;;;6127114;23;20418;-84
2022/08/18 00:54:31;;;;;;;956.30;877.20;;;15.90;99.90;;;;;;6127499;23;20776;-86
2022/08/18 00:57:02;;;;;;;964.40;883.73;;;16.00;99.90;;;;;;6126925;23;20942;-85
2022/08/18 00:59:32;;;;;;;970.97;891.80;;;16.00;99.90;;;;;;6127354;23;20400;-85
2022/08/18 01:02:04;;;;;;;972.30;893.30;;;16.00;99.90;;;;;;6127367;23;20400;-84
2022/08/18 01:04:37;;;;;;;975.90;891.73;;;16.00;99.90;;;;;;6137215;23;20455;-85
2022/08/18 01:07:11;;;;;;;974.73;890.77;;;16.10;99.90;;;;;;6127856;23;20773;-85
2022/08/18 01:09:37;;;;;;;983.90;898.23;;;16.20;99.90;;;;;;6127514;23;20401;-86
2022/08/18 01:12:05;;;;;;;980.10;894.67;;;16.20;99.90;;;;;;6127827;23;20421;-85
2022/08/18 01:14:32;;;;;;;980.67;895.57;;;16.30;99.90;;;;;;6128665;23;20507;-85
2022/08/18 01:22:43;;;;;;;978.97;896.90;;;16.00;99.90;;;;;;6128221;23;20831;-85
2022/08/18 01:27:56;;;;;;;976.20;893.00;;;15.80;99.90;;;;;;6128168;23;20393;-85
2022/08/18 01:30:25;;;;;;;967.97;881.83;;;15.60;99.90;;;;;;6128927;23;20423;-84
2022/08/18 01:32:52;;;;;;;971.17;884.97;;;15.70;99.90;;;;;;6128320;23;20950;-84
2022/08/18 01:35:24;;;;;;;964.43;878.40;;;15.70;99.90;;;;;;6127798;23;20753;-84
2022/08/18 01:37:51;;;;;;;959.60;873.23;;;15.70;99.90;;;;;;6127720;23;20421;-84
2022/08/18 01:40:23;;;;;;;954.90;867.07;;;15.80;99.90;;;;;;6128379;23;20419;-85
2022/08/18 01:42:50;;;;;;;966.67;880.07;;;16.00;99.90;;;;;;6128719;23;20427;-84
2022/08/18 01:45:19;;;;;;;955.53;871.30;;;15.70;99.90;;;;;;6130183;23;20443;-84
2022/08/18 01:47:46;;;;;;;922.13;840.63;;;15.60;99.90;;;;;;6129831;23;20415;-84
2022/08/18 01:50:12;;;;;;;928.07;846.40;;;15.60;99.90;;;;;;6130223;23;20414;-84
2022/08/18 01:52:40;;;;;;;921.47;837.97;;;15.50;99.90;;;;;;6130023;23;20422;-83
2022/08/18 01:55:07;;;;;;;911.83;826.93;;;15.50;99.90;;;;;;6130183;23;20431;-85
2022/08/18 01:57:41;;;;;;;905.13;824.60;;;15.50;99.90;;;;;;6130954;23;21004;-84
2022/08/18 02:00:09;;;;;;;903.33;823.77;;;15.40;99.90;;;;;;6131225;23;20403;-84
2022/08/18 02:02:36;;;;;;;915.10;834.90;;;15.20;99.90;;;;;;6130479;23;20414;-83
2022/08/18 02:05:08;;;;;;;914.53;833.57;;;15.10;99.90;;;;;;6130697;23;20969;-84
2022/08/18 02:07:36;;;;;;;904.13;822.13;;;15.10;99.90;;;;;;6130973;23;20399;-84
2022/08/18 02:10:05;;;;;;;903.07;818.27;;;15.20;99.90;;;;;;6131110;23;20452;-84
2022/08/18 02:12:32;;;;;;;921.53;832.13;;;15.40;99.90;;;;;;6130957;23;20862;-85
2022/08/18 02:15:00;;;;;;;908.33;819.77;;;15.70;99.90;;;;;;6129574;23;20439;-84
2022/08/18 02:17:27;;;;;;;917.70;829.00;;;15.70;99.90;;;;;;6131072;23;20783;-84
2022/08/18 02:19:54;;;;;;;923.13;833.93;;;15.60;99.90;;;;;;6130348;23;20419;-83
2022/08/18 02:22:21;;;;;;;942.40;850.60;;;15.70;99.90;;;;;;6130479;23;20469;-83
2022/08/18 02:24:49;;;;;;;964.63;870.17;;;15.90;99.90;;;;;;6129962;23;20443;-83
2022/08/18 02:27:16;;;;;;;985.40;887.77;;;16.20;99.90;;;;;;6130366;23;20422;-83
2022/08/18 02:29:43;;;;;;;979.73;883.77;;;16.40;99.90;;;;;;6130158;23;20421;-83
2022/08/18 02:32:11;;;;;;;1003.40;901.67;;;16.50;99.90;;;;;;6131494;23;20416;-84
2022/08/18 02:34:38;;;;;;;1000.50;900.67;;;16.70;99.90;;;;;;6130712;23;20432;-83
2022/08/18 02:37:05;;;;;;;1001.67;900.07;;;16.90;99.90;;;;;;6140353;23;20423;-83
2022/08/18 02:39:34;;;;;;;993.30;894.63;;;16.90;99.90;;;;;;6131140;23;20417;-83
2022/08/18 02:42:01;;;;;;;990.43;888.30;;;17.00;99.90;;;;;;6131359;23;20418;-83
2022/08/18 02:44:28;;;;;;;978.00;880.23;;;17.10;99.90;;;;;;6130106;23;20445;-84
2022/08/18 02:46:55;;;;;;;978.00;879.73;;;17.10;99.90;;;;;;6131447;23;20446;-84
2022/08/18 02:49:24;;;;;;;976.77;876.83;;;17.20;99.90;;;;;;6130640;23;20425;-83
2022/08/18 02:51:51;;;;;;;977.30;877.80;;;17.10;99.90;;;;;;6130119;23;20418;-83
2022/08/18 02:54:19;;;;;;;966.43;871.00;;;17.20;99.90;;;;;;6129220;23;20441;-83
2022/08/18 02:56:46;;;;;;;967.53;868.53;;;17.10;99.90;;;;;;6129118;23;20928;-84
2022/08/18 02:59:15;;;;;;;979.30;879.00;;;17.10;99.90;;;;;;6130833;23;20437;-82
2022/08/18 03:01:45;;;;;;;973.00;874.57;;;17.10;99.90;;;;;;6130574;23;20430;-84
2022/08/18 03:04:15;;;;;;;973.27;875.40;;;17.10;99.90;;;;;;6130212;23;20438;-84
2022/08/18 03:06:45;;;;;;;955.60;859.80;;;17.10;99.90;;;;;;6130681;23;20438;-84
2022/08/18 03:09:15;;;;;;;971.77;876.23;;;17.10;99.90;;;;;;6130267;23;20483;-84
2022/08/18 03:11:42;;;;;;;957.17;863.30;;;17.10;99.90;;;;;;6129793;23;20437;-84
2022/08/18 03:14:08;;;;;;;956.03;861.60;;;17.20;99.90;;;;;;6129973;23;20445;-84
2022/08/18 03:16:37;;;;;;;958.10;860.80;;;17.20;99.90;;;;;;6131122;23;20424;-83
2022/08/18 03:19:04;;;;;;;960.50;865.10;;;17.10;99.90;;;;;;6130222;23;20418;-83
2022/08/18 03:21:34;;;;;;;952.63;859.33;;;17.10;99.90;;;;;;6130862;23;20424;-84
2022/08/18 03:24:04;;;;;;;954.10;860.27;;;17.30;99.90;;;;;;6130820;23;20439;-83
2022/08/18 03:26:32;;;;;;;955.50;862.13;;;17.20;99.90;;;;;;6130693;23;20436;-83
2022/08/18 03:29:00;;;;;;;948.50;856.07;;;17.20;99.90;;;;;;6131204;23;20419;-85
2022/08/18 03:31:30;;;;;;;946.57;853.53;;;17.20;99.90;;;;;;6130659;23;20753;-84
2022/08/18 03:34:00;;;;;;;955.50;862.13;;;17.20;99.90;;;;;;6130786;23;20431;-84
2022/08/18 03:36:30;;;;;;;935.00;844.07;;;17.20;99.90;;;;;;6129091;23;20417;-84
2022/08/18 03:38:58;;;;;;;937.27;846.27;;;17.30;99.90;;;;;;6129909;23;20400;-83
2022/08/18 03:41:28;;;;;;;933.83;845.47;;;17.40;99.90;;;;;;6129817;23;20426;-83
2022/08/18 03:43:55;;;;;;;940.93;851.87;;;17.30;99.90;;;;;;6130522;23;20439;-84
2022/08/18 03:46:24;;;;;;;920.00;833.87;;;17.30;99.90;;;;;;6130318;23;20917;-84
2022/08/18 03:48:52;;;;;;;933.30;846.27;;;17.40;99.90;;;;;;6130312;23;20441;-82
2022/08/18 03:51:24;;;;;;;914.27;827.07;;;17.40;99.90;;;;;;6126029;23;20421;-83
2022/08/18 03:53:53;;;;;;;917.40;833.37;;;17.40;99.90;;;;;;6127308;23;20770;-83
2022/08/18 03:56:22;;;;;;;916.27;832.13;;;17.50;99.90;;;;;;6128468;23;20414;-83
2022/08/18 03:58:52;;;;;;;902.50;819.73;;;17.50;99.90;;;;;;6127521;23;20423;-83
2022/08/18 04:01:21;;;;;;;890.00;811.40;;;17.50;99.90;;;;;;6128059;23;20421;-83
2022/08/18 04:03:52;;;;;;;885.63;807.07;;;17.40;99.90;;;;;;6126084;23;20445;-83
2022/08/18 04:06:21;;;;;;;882.87;805.10;;;17.50;99.90;;;;;;6127187;23;20414;-84
2022/08/18 04:08:50;;;;;;;873.03;795.33;;;17.50;99.90;;;;;;6125474;23;20490;-82
2022/08/18 04:11:17;;;;;;;859.00;785.50;;;17.60;99.90;;;;;;6124547;23;20759;-83
2022/08/18 04:13:43;;;;;;;853.83;781.10;;;17.60;99.90;;;;;;6124629;23;20450;-82
2022/08/18 04:16:12;;;;;;;834.57;771.67;;;17.50;99.90;;;;;;6124237;23;20426;-82
2022/08/18 04:18:38;;;;;;;845.60;775.73;;;17.50;99.90;;;;;;6125727;23;20420;-82
2022/08/18 04:21:08;;;;;;;865.00;792.67;;;17.40;99.90;;;;;;6125546;23;20418;-81
2022/08/18 04:23:34;;;;;;;868.53;794.80;;;17.50;99.90;;;;;;6128685;23;20949;-82
2022/08/18 04:26:02;;;;;;;870.77;796.77;;;17.50;99.90;;;;;;6131057;23;20423;-81
2022/08/18 04:28:29;;;;;;;880.37;806.40;;;17.50;99.90;;;;;;6130029;23;20414;-81
2022/08/18 04:30:58;;;;;;;869.47;795.40;;;17.50;99.90;;;;;;6129587;23;20415;-82
2022/08/18 04:33:31;;;;;;;887.53;813.27;;;17.60;99.90;;;;;;6129711;23;20434;-84
2022/08/18 04:35:58;;;;;;;895.80;822.77;;;17.70;99.90;;;;;;6130578;23;20410;-82
2022/08/18 04:38:24;;;;;;;895.83;823.53;;;17.70;99.90;;;;;;6132046;23;20426;-86
2022/08/18 04:40:51;;;;;;;901.70;831.50;;;17.70;99.90;;;;;;6136148;23;20908;-86
2022/08/18 04:43:18;;;;;;;895.93;827.13;;;17.80;99.90;;;;;;6131509;23;20431;-83
2022/08/18 04:45:45;;;;;;;905.97;836.40;;;17.80;99.90;;;;;;6127746;23;20929;-85
2022/08/18 04:48:14;;;;;;;899.23;831.77;;;17.80;99.90;;;;;;6135266;23;20424;-86
2022/08/18 04:50:43;;;;;;;888.57;820.47;;;17.80;99.90;;;;;;6133555;23;20815;-85
2022/08/18 04:55:55;;;;;;;881.97;818.00;;;17.90;99.90;;;;;;6125954;23;20386;-81
2022/08/18 04:58:24;;;;;;;868.23;805.50;;;17.90;99.90;;;;;;6126285;23;20517;-82
2022/08/18 05:00:57;;;;;;;872.77;811.50;;;17.90;99.90;;;;;;6126381;23;20729;-82
2022/08/18 05:27:42;;;;;;;802.97;753.20;;;18.50;99.90;;;;;;6196737;22;20441;-81
2022/08/18 05:30:49;;;;;;;;;;;;;;;;;;;;;
2022/08/18 05:36:44;;;;;;;712.13;669.63;;;18.60;99.90;;;;;;6213610;23;20417;-81
2022/08/18 05:39:23;;;;;;;697.60;656.50;;;18.70;99.90;;;;;;6227282;23;20752;-80
2022/08/18 05:42:18;;;;;;;707.87;667.40;;;18.70;99.90;;;;;;6216739;23;20869;-81
2022/08/18 05:51:36;;;;;;;578.83;548.07;;;18.90;99.90;;;;;;6196651;23;20481;-82
2022/08/18 05:56:51;;;;;;;493.27;468.07;;;19.10;99.90;;;;;;6226309;23;20514;-79
2022/08/18 05:59:23;;;;;;;485.87;460.37;;;19.00;99.90;;;;;;6217666;23;20421;-79
2022/08/18 06:01:58;;;;;;;466.40;442.10;;;19.10;99.90;;;;;;6217734;23;20405;-79
2022/08/18 06:04:43;;;;;;;443.60;421.77;;;19.20;99.90;;;;;;6218362;23;21036;-81
2022/08/18 06:07:13;;;;;;;399.60;379.60;;;19.30;99.90;;;;;;6217819;23;20741;-79
2022/08/18 06:09:46;;;;;;;374.60;356.10;;;19.40;99.90;;;;;;6218242;23;20406;-80
2022/08/18 06:12:21;;;;;;;307.27;291.03;;;19.50;99.90;;;;;;6215670;23;20400;-79
2022/08/18 06:14:48;;;;;;;319.17;303.47;;;19.60;99.90;;;;;;6216780;23;20429;-80
2022/08/18 06:17:53;;;;;;;289.07;274.57;;;19.80;99.90;;;;;;6218282;23;20413;-80
2022/08/18 06:20:46;;;;;;;205.50;193.40;;;19.70;99.90;;;;;;6217655;23;20413;-84
2022/08/18 06:23:40;;;;;;;155.03;144.30;;;19.70;99.90;;;;;;6216786;23;20502;-84
2022/08/18 06:26:17;;;;;;;132.93;122.17;;;19.80;99.90;;;;;;6216429;23;20428;-84
2022/08/18 06:28:54;;;;;;;129.67;119.77;;;19.60;99.90;;;;;;6216459;23;20419;-84
2022/08/18 06:35:30;;;;;;;;;;;;;;;;;;;;;
2022/08/18 06:39:00;;;;;;;;;;;;;;;;;;;;;
2022/08/18 06:41:37;;;;;;;124.67;115.63;;;19.90;99.90;;;;;;6201876;23;20413;-84
2022/08/18 06:44:10;;;;;;;121.43;112.63;;;19.80;99.90;;;;;;6216508;23;20474;-84
2022/08/18 06:49:41;;;;;;;137.23;127.53;;;19.80;99.90;;;;;;6208619;23;20466;-85
2022/08/18 06:55:34;;;;;;;109.80;101.20;;;20.00;99.90;;;;;;6212132;23;20523;-84
2022/08/18 06:58:30;;;;;;;93.27;85.43;;;20.00;99.90;;;;;;6215513;23;20505;-85
2022/08/18 07:01:01;;;;;;;63.60;56.80;;;20.00;99.90;;;;;;6205616;23;20419;-84
2022/08/18 07:03:42;;;;;;;79.50;72.00;;;20.00;99.90;;;;;;6214934;23;20490;-83
2022/08/18 07:06:28;;;;;;;72.27;65.47;;;20.00;99.90;;;;;;6225180;23;20433;-83
2022/08/18 07:09:33;;;;;;;67.57;60.87;;;20.10;99.90;;;;;;6216409;23;20401;-85
2022/08/18 07:12:14;;;;;;;73.73;66.30;;;19.90;99.90;;;;;;6215589;23;20439;-84
2022/08/18 07:15:45;;;;;;;65.63;58.23;;;19.80;99.90;;;;;;6225501;23;20420;-84
2022/08/18 07:18:13;;;;;;;77.63;70.33;;;19.80;99.90;;;;;;6215837;23;20476;-85
2022/08/18 07:20:45;;;;;;;62.73;56.20;;;19.90;99.90;;;;;;6217145;23;20409;-87
2022/08/18 07:23:32;;;;;;;63.40;56.97;;;19.90;99.90;;;;;;6226088;23;20411;-85
2022/08/18 07:26:10;;;;;;;64.30;57.13;;;19.90;99.90;;;;;;6225857;23;20436;-84
2022/08/18 07:29:12;;;;;;;58.53;52.50;;;19.90;99.90;;;;;;6216538;23;20422;-85
2022/08/18 07:31:49;;;;;;;65.80;55.00;;;20.00;99.90;;;;;;6216841;23;20435;-85
2022/08/18 07:34:35;;;;;;;67.30;60.80;;;19.90;99.90;;;;;;6225591;23;20497;-85
2022/08/18 07:40:35;;;;;;;51.40;39.63;;;19.90;99.90;;;;;;6162741;23;20412;-86
2022/08/18 07:44:03;;;;;;;49.87;44.57;;;19.70;99.90;;;;;;6216097;23;20401;-85
2022/08/18 07:46:59;;;;;;;64.53;46.83;;;19.80;99.90;;;;;;6214622;23;20438;-85
2022/08/18 07:49:30;;;;;;;56.07;49.60;;;19.80;99.90;;;;;;6212203;23;20424;-85
2022/08/18 07:52:03;;;;;;;66.93;59.63;;;19.70;99.90;;;;;;6216524;23;20890;-85
2022/08/18 07:54:54;;;;;;;66.80;60.20;;;19.70;99.90;;;;;;6215884;23;20483;-84
2022/08/18 07:57:33;;;;;;;57.83;51.73;;;20.00;99.90;;;;;;6218943;23;20402;-82
2022/08/18 08:00:11;;;;;;;44.10;39.30;;;19.90;99.90;;;;;;6219111;23;20407;-83
2022/08/18 08:02:51;;;;;;;53.73;45.97;;;19.80;99.90;;;;;;6219671;23;20392;-82
2022/08/18 08:05:35;;;;;;;60.00;49.27;;;19.80;99.90;;;;;;6220712;23;20450;-82
2022/08/18 08:08:11;;;;;;;55.23;45.00;;;19.90;99.90;;;;;;6218026;23;20405;-84
2022/08/18 08:10:50;;;;;;;55.50;40.50;;;19.90;99.90;;;;;;6216099;23;20433;-84
2022/08/18 08:13:23;;;;;;;54.00;38.40;;;19.90;99.90;;;;;;6216922;23;20428;-85
2022/08/18 08:15:56;;;;;;;47.83;37.27;;;20.00;99.90;;;;;;6216422;23;20395;-84
2022/08/18 08:18:36;;;;;;;49.07;37.07;;;19.90;99.60;;;;;;6216912;23;20424;-85
2022/08/18 08:21:09;;;;;;;48.37;38.37;;;20.00;99.50;;;;;;6217576;23;20393;-84
2022/08/18 08:23:46;;;;;;;50.13;37.67;;;20.00;99.40;;;;;;6216648;23;20432;-85
2022/08/18 08:26:46;;;;;;;52.00;38.87;;;20.10;99.70;;;;;;6216759;23;20455;-86
2022/08/18 08:29:22;;;;;;;41.17;33.00;;;20.20;99.10;;;;;;6216685;23;20423;-85
2022/08/18 08:32:00;;;;;;;47.60;33.87;;;20.30;97.60;;;;;;6217245;23;20397;-85
2022/08/18 08:34:37;;;;;;;51.30;35.20;;;20.60;97.10;;;;;;6216472;23;20994;-85
2022/08/18 08:37:51;;;;;;;48.37;33.23;;;20.90;95.60;;;;;;6227553;23;20409;-84
2022/08/18 08:40:23;;;;;;;47.90;32.90;;;20.90;95.00;;;;;;6226463;23;20418;-84
2022/08/18 08:42:55;;;;;;;39.40;28.57;;;21.20;93.50;;;;;;6217338;23;20733;-85
2022/08/18 08:45:27;;;;;;;47.37;31.03;;;21.30;92.90;;;;;;6226362;23;20442;-85
2022/08/18 08:48:01;;;;;;;37.60;26.63;;;21.20;92.20;;;;;;6216614;23;20410;-84
2022/08/18 08:50:35;;;;;;;46.37;31.93;;;21.40;91.20;;;;;;6216655;23;20495;-84
2022/08/18 08:53:08;;;;;;;33.40;25.13;;;21.60;90.90;;;;;;6216341;23;20421;-85
2022/08/18 08:55:41;;;;;;;39.80;27.63;;;21.60;89.10;;;;;;6216751;23;20785;-85
2022/08/18 08:58:19;;;;;;;43.97;27.63;;;21.70;89.20;;;;;;6216444;23;20396;-84
2022/08/18 09:00:48;;;;;;;30.70;22.20;;;21.80;87.70;;;;;;6216661;23;20440;-84
2022/08/18 09:03:30;;;;;;;30.97;24.50;;;21.70;87.60;;;;;;6216592;23;20433;-85
2022/08/18 09:06:14;;;;;;;32.40;24.60;;;21.70;87.60;;;;;;6217263;23;20767;-83
2022/08/18 09:08:55;;;;;;;36.83;26.50;;;21.80;85.40;;;;;;6217178;23;20729;-85
2022/08/18 09:11:52;;;;;;;36.47;27.33;;;21.60;85.80;;;;;;6217235;23;20408;-85
2022/08/18 09:15:00;;;;;;;38.13;25.43;;;21.50;87.40;;;;;;6215894;23;20439;-83
2022/08/18 09:17:49;;;;;;;37.47;26.23;;;21.50;88.40;;;;;;6228990;23;20941;-85
2022/08/18 09:20:33;;;;;;;38.00;27.13;;;21.50;89.40;;;;;;6217414;23;20954;-85
2022/08/18 09:23:08;;;;;;;37.67;27.40;;;21.70;87.60;;;;;;6216773;23;20397;-84
2022/08/18 09:25:46;;;;;;;43.83;25.43;;;21.80;84.10;;;;;;6216538;23;20428;-85
2022/08/18 09:28:16;;;;;;;39.33;25.93;;;22.40;83.70;;;;;;6216987;23;20445;-85
2022/08/18 09:30:47;;;;;;;33.03;25.30;;;22.60;81.40;;;;;;6216171;23;20422;-85
2022/08/18 09:33:33;;;;;;;31.63;23.77;;;23.30;76.70;;;;;;6216724;23;20445;-80
2022/08/18 09:36:28;;;;;;;31.00;22.13;;;23.40;73.30;;;;;;6216459;23;20396;-81
2022/08/18 09:41:49;;;;;;;27.20;20.60;;;24.40;65.90;;;;;;6215962;23;20388;-80
2022/08/18 09:44:55;;;;;;;22.60;19.27;;;24.80;61.10;;;;;;6215815;23;21131;-80
2022/08/18 09:48:00;;;;;;;26.00;18.40;;;25.40;58.20;;;;;;6215057;23;20763;-81
2022/08/18 09:50:38;;;;;;;21.30;16.90;;;25.50;54.20;;;;;;6216140;23;20415;-80
2022/08/18 09:53:52;;;;;;;20.43;17.60;;;25.70;51.00;;;;;;6215447;23;20396;-80
2022/08/18 09:56:58;;;;;;;20.63;15.67;;;25.50;52.90;;;;;;6215094;23;20902;-80
2022/08/18 10:00:18;;;;;;;25.50;18.40;;;25.50;51.80;;;;;;6226203;23;20486;-80
2022/08/18 10:03:22;;;;;;;24.33;19.00;;;25.30;53.30;;;;;;6225622;23;20454;-81
2022/08/18 10:06:06;;;;;;;22.30;18.90;;;25.40;53.20;;;;;;6217511;23;20427;-80
2022/08/18 10:08:59;;;;;;;32.07;21.70;;;25.50;53.50;;;;;;6215170;23;20412;-80
2022/08/18 10:11:42;;;;;;;25.33;21.47;;;25.60;52.40;;;;;;6218105;23;20399;-79
2022/08/18 10:14:25;;;;;;;22.50;17.53;;;25.80;50.80;;;;;;6217742;23;20423;-80
2022/08/18 10:17:00;;;;;;;28.30;20.37;;;25.90;49.60;;;;;;6217704;23;20395;-80
2022/08/18 10:19:41;;;;;;;15.47;11.93;;;26.10;51.00;;;;;;6217780;23;20878;-82
2022/08/18 10:22:10;;;;;;;18.67;13.80;;;25.40;45.70;;;;;;6217804;23;20399;-82
2022/08/18 10:24:51;;;;;;;16.90;13.90;;;25.10;46.10;;;;;;6217051;23;20427;-82
2022/08/18 10:27:52;;;;;;;17.33;14.13;;;25.30;44.10;;;;;;6217160;23;20436;-82
2022/08/18 10:30:57;;;;;;;19.23;10.77;;;25.90;40.60;;;;;;6218124;23;20439;-83
2022/08/18 10:33:58;;;;;;;16.13;12.40;;;25.80;40.60;;;;;;6217628;23;20455;-82
2022/08/18 10:36:44;;;;;;;15.53;11.40;;;25.60;43.20;;;;;;6228482;23;20511;-80
2022/08/18 10:39:13;;;;;;;28.10;12.70;;;25.80;44.40;;;;;;6216366;23;20416;-80
2022/08/18 10:41:55;;;;;;;15.73;12.30;;;25.80;43.80;;;;;;6227084;23;20894;-81
2022/08/18 10:44:26;;;;;;;17.10;13.23;;;25.10;44.70;;;;;;6217014;23;20458;-81
2022/08/18 10:46:53;;;;;;;17.00;12.03;;;25.70;42.20;;;;;;6217514;23;20493;-81
2022/08/18 10:49:24;;;;;;;16.60;10.87;;;26.10;40.70;;;;;;6216900;23;20412;-81
2022/08/18 10:52:02;;;;;;;18.63;11.87;;;25.60;43.90;;;;;;6217759;23;20824;-81
2022/08/18 10:54:40;;;;;;;15.50;12.40;;;25.50;43.50;;;;;;6217534;23;20435;-83
2022/08/18 10:57:14;;;;;;;14.70;11.10;;;25.20;40.30;;;;;;6216890;23;20392;-82
2022/08/18 10:59:51;;;;;;;13.70;9.73;;;25.10;41.80;;;;;;6216455;23;20419;-80
2022/08/18 11:02:38;;;;;;;11.27;9.50;;;25.20;42.70;;;;;;6216351;23;20403;-80
2022/08/18 11:05:08;;;;;;;13.70;9.97;;;25.20;45.00;;;;;;6215392;23;20436;-80
2022/08/18 11:07:37;;;;;;;14.00;10.60;;;25.00;42.70;;;;;;6216668;23;20442;-80
2022/08/18 11:10:17;;;;;;;15.43;10.97;;;24.80;42.40;;;;;;6216948;23;20412;-80
2022/08/18 11:13:04;;;;;;;12.07;9.23;;;25.20;42.60;;;;;;6216604;23;21068;-80
2022/08/18 11:15:43;;;;;;;14.80;9.73;;;25.80;40.50;;;;;;6215857;23;20478;-80
2022/08/18 11:18:27;;;;;;;16.27;9.83;;;25.40;40.20;;;;;;6217183;23;20740;-80
2022/08/18 11:20:54;;;;;;;10.97;9.50;;;25.30;40.20;;;;;;6217669;23;20392;-80
2022/08/18 11:23:21;;;;;;;11.37;8.23;;;26.30;40.90;;;;;;6217379;23;20435;-80
2022/08/18 11:25:48;;;;;;;12.57;8.87;;;27.40;34.00;;;;;;6215984;23;20436;-82
2022/08/18 11:28:17;;;;;;;10.70;8.17;;;28.10;27.40;;;;;;6216505;23;20426;-82
2022/08/18 11:30:47;;;;;;;12.03;8.80;;;28.10;27.00;;;;;;6217575;23;20418;-82
2022/08/18 11:33:17;;;;;;;12.70;8.80;;;27.90;26.20;;;;;;6217019;23;20436;-83
2022/08/18 11:35:50;;;;;;;12.00;9.77;;;28.80;23.40;;;;;;6216593;23;20408;-81
2022/08/18 11:38:19;;;;;;;11.23;8.90;;;28.80;24.60;;;;;;6216959;23;20396;-82
2022/08/18 11:40:47;;;;;;;12.47;8.40;;;28.40;20.40;;;;;;6216514;23;20980;-83
2022/08/18 11:43:16;;;;;;;11.63;8.53;;;27.50;23.20;;;;;;6216737;23;20419;-81
2022/08/18 11:45:54;;;;;;;12.80;9.10;;;27.10;26.80;;;;;;6217353;23;20408;-82
2022/08/18 11:48:32;;;;;;;17.27;8.83;;;26.40;26.70;;;;;;6217409;23;20403;-81
2022/08/18 11:51:02;;;;;;;10.20;8.60;;;26.60;29.90;;;;;;6216703;23;20867;-82
2022/08/18 11:53:42;;;;;;;12.07;8.67;;;26.60;30.00;;;;;;6216756;23;20454;-81
2022/08/18 11:56:24;;;;;;;14.03;8.93;;;26.00;31.40;;;;;;6216093;23;20396;-82
2022/08/18 11:58:53;;;;;;;12.63;9.77;;;26.20;30.00;;;;;;6216489;23;20484;-82
2022/08/18 12:01:49;;;;;;;9.30;7.20;;;26.10;31.40;;;;;;6216452;23;20442;-81
2022/08/18 12:04:22;;;;;;;9.60;7.20;;;26.10;30.80;;;;;;6146719;23;20431;-81
2022/08/18 12:06:59;;;;;;;10.20;7.23;;;26.10;29.80;;;;;;6216132;23;20455;-81
2022/08/18 12:09:33;;;;;;;11.67;7.67;;;26.00;28.80;;;;;;6216519;23;20403;-81
2022/08/18 12:12:02;;;;;;;10.57;8.13;;;26.00;29.70;;;;;;6217020;23;20419;-82
2022/08/18 12:14:33;;;;;;;9.83;7.90;;;26.20;31.60;;;;;;6216823;23;20494;-82
2022/08/18 12:17:02;;;;;;;11.10;7.50;;;26.70;28.50;;;;;;6216347;23;20408;-82
2022/08/18 12:19:29;;;;;;;9.30;6.80;;;26.60;29.40;;;;;;6216580;23;20412;-82
2022/08/18 12:21:58;;;;;;;10.37;7.87;;;26.50;28.10;;;;;;6215967;23;20427;-81
2022/08/18 12:24:27;;;;;;;10.50;8.13;;;26.10;28.60;;;;;;6216743;23;20838;-82
2022/08/18 12:26:54;;;;;;;10.80;7.90;;;26.10;28.00;;;;;;6215995;23;20770;-81
2022/08/18 12:29:21;;;;;;;10.53;7.53;;;26.70;27.70;;;;;;6216113;23;20427;-81
2022/08/18 12:31:50;;;;;;;14.67;7.90;;;26.50;27.30;;;;;;6216685;23;20412;-82
2022/08/18 12:34:19;;;;;;;10.07;8.10;;;26.20;29.30;;;;;;6216341;23;20467;-82
2022/08/18 12:36:46;;;;;;;9.77;8.07;;;26.30;28.10;;;;;;6216641;23;20465;-81
2022/08/18 12:39:13;;;;;;;9.97;7.90;;;26.20;28.60;;;;;;6216540;23;20423;-82
2022/08/18 12:41:40;;;;;;;11.33;8.30;;;25.70;29.10;;;;;;6216862;23;20412;-82
2022/08/18 12:44:07;;;;;;;13.10;8.10;;;25.20;30.80;;;;;;6216535;23;20432;-81
2022/08/18 12:46:33;;;;;;;15.03;9.27;;;25.40;31.40;;;;;;6216533;23;20442;-82
2022/08/18 12:49:02;;;;;;;10.00;7.97;;;25.20;31.50;;;;;;6216023;23;20914;-81
2022/08/18 12:51:30;;;;;;;13.20;9.20;;;25.00;34.30;;;;;;6216770;23;20412;-82
2022/08/18 12:53:57;;;;;;;13.67;9.57;;;25.10;36.90;;;;;;6216584;23;20929;-80
2022/08/18 12:56:28;;;;;;;10.57;7.70;;;25.30;35.60;;;;;;6214648;23;20419;-82
2022/08/18 12:58:56;;;;;;;11.07;9.00;;;25.60;31.60;;;;;;6226526;23;20415;-82
2022/08/18 13:01:24;;;;;;;13.13;8.33;;;25.80;30.30;;;;;;6215907;23;20419;-81
2022/08/18 13:03:54;;;;;;;11.37;7.60;;;25.90;28.70;;;;;;6215499;23;20431;-80
2022/08/18 13:06:21;;;;;;;12.07;8.40;;;25.70;31.20;;;;;;6215713;23;20431;-81
2022/08/18 13:08:50;;;;;;;9.93;7.57;;;25.90;30.10;;;;;;6214920;23;20413;-81
2022/08/18 13:11:17;;;;;;;8.93;7.07;;;26.00;27.70;;;;;;6215885;23;20470;-81
2022/08/18 13:13:45;;;;;;;9.63;8.07;;;26.50;27.30;;;;;;6215352;23;20432;-81
2022/08/18 13:16:13;;;;;;;8.53;6.80;;;26.60;27.50;;;;;;6226147;23;20415;-81
2022/08/18 13:18:42;;;;;;;13.73;7.50;;;26.80;26.40;;;;;;6215798;23;20486;-81
2022/08/18 13:21:11;;;;;;;10.80;7.80;;;26.10;27.10;;;;;;6216048;23;20419;-81
2022/08/18 13:23:38;;;;;;;9.80;7.87;;;26.10;27.20;;;;;;6215594;23;20763;-81
2022/08/18 13:26:21;;;;;;;14.40;7.80;;;26.30;26.60;;;;;;6225071;23;20416;-81
2022/08/18 13:28:48;;;;;;;10.93;8.43;;;26.80;25.70;;;;;;6215137;23;20422;-81
2022/08/18 13:31:14;;;;;;;11.10;8.03;;;26.60;25.00;;;;;;6215294;23;20419;-81
2022/08/18 13:33:42;;;;;;;8.37;6.57;;;26.70;25.90;;;;;;6215472;23;20432;-81
2022/08/18 13:36:22;;;;;;;11.03;8.47;;;26.60;27.20;;;;;;6225041;23;20415;-81
2022/08/18 13:38:51;;;;;;;12.43;10.10;;;26.50;25.40;;;;;;6226244;23;20392;-82
2022/08/18 13:41:19;;;;;;;16.07;10.90;;;26.70;24.90;;;;;;6217323;23;20412;-82
2022/08/18 13:43:46;;;;;;;12.57;10.80;;;27.30;22.10;;;;;;6226509;23;20435;-81
2022/08/18 13:46:17;;;;;;;12.80;10.60;;;27.30;24.60;;;;;;6217095;23;20411;-81
2022/08/18 13:48:44;;;;;;;19.27;12.90;;;27.90;20.60;;;;;;6217318;23;20402;-81
2022/08/18 13:51:19;;;;;;;16.87;15.10;;;27.70;19.20;;;;;;6217291;23;20890;-80
2022/08/18 13:53:45;;;;;;;17.13;15.33;;;27.80;20.10;;;;;;6217211;23;20435;-80
2022/08/18 13:56:12;;;;;;;15.63;12.77;;;27.60;21.50;;;;;;6217077;23;20442;-81
2022/08/18 13:58:40;;;;;;;13.83;12.37;;;27.70;18.10;;;;;;6217167;23;20412;-81
2022/08/18 14:01:10;;;;;;;15.73;14.07;;;27.60;17.20;;;;;;6217788;23;20416;-80
2022/08/18 14:03:38;;;;;;;17.00;15.27;;;28.20;17.20;;;;;;6217475;23;20467;-82
2022/08/18 14:06:06;;;;;;;16.30;13.97;;;28.40;17.70;;;;;;6217464;23;20419;-80